createdAt,value
2024-03-10T00:00:40.482Z,25.58
2024-03-10T00:03:08.459Z,24.25
2024-03-10T00:05:36.480Z,25.55
2024-03-10T00:08:04.067Z,25.43
2024-03-10T00:10:31.184Z,26.52
2024-03-10T00:12:58.400Z,22.65
2024-03-10T00:15:25.626Z,26.30
2024-03-10T00:17:54.028Z,21.23
2024-03-10T00:20:22.021Z,24.23
2024-03-10T00:22:51.777Z,23.38
2024-03-10T00:25:20.197Z,24.02
2024-03-10T00:27:47.241Z,25.02
2024-03-10T00:30:15.049Z,23.83
2024-03-10T00:32:43.218Z,23.97
2024-03-10T00:35:12.401Z,26.40
2024-03-10T00:37:42.717Z,29.98
2024-03-10T00:40:10.245Z,27.38
2024-03-10T00:42:38.371Z,25.20
2024-03-10T00:45:06.051Z,28.80
2024-03-10T00:47:33.115Z,29.05
2024-03-10T00:50:00.829Z,24.98
2024-03-10T00:52:27.779Z,25.80
2024-03-10T00:54:55.051Z,24.08
2024-03-10T00:57:22.276Z,26.03
2024-03-10T00:59:49.526Z,24.75
2024-03-10T01:02:16.919Z,23.23
2024-03-10T01:04:44.688Z,23.27
2024-03-10T01:07:11.718Z,24.70
2024-03-10T01:09:39.049Z,22.00
2024-03-10T01:12:07.068Z,25.27
2024-03-10T01:14:34.539Z,25.25
2024-03-10T01:17:06.048Z,26.08
2024-03-10T01:19:33.001Z,27.65
2024-03-10T01:22:00.295Z,24.90
2024-03-10T01:24:27.660Z,25.35
2024-03-10T01:26:54.899Z,26.45
2024-03-10T01:29:24.004Z,26.92
2024-03-10T01:31:51.470Z,27.90
2024-03-10T01:34:21.010Z,26.40
2024-03-10T01:36:48.066Z,27.63
2024-03-10T01:39:15.406Z,28.23
2024-03-10T01:41:43.315Z,24.17
2024-03-10T01:44:10.612Z,25.98
2024-03-10T01:46:38.173Z,25.93
2024-03-10T01:49:06.526Z,26.25
2024-03-10T01:51:33.816Z,23.88
2024-03-10T01:54:01.497Z,26.95
2024-03-10T01:56:28.996Z,25.33
2024-03-10T01:58:56.451Z,25.13
2024-03-10T02:01:24.231Z,25.00
2024-03-10T02:03:51.321Z,25.55
2024-03-10T02:06:19.115Z,26.95
2024-03-10T02:08:47.984Z,23.88
2024-03-10T02:11:15.728Z,29.20
2024-03-10T02:13:43.152Z,25.23
2024-03-10T02:16:11.246Z,24.50
2024-03-10T02:18:39.442Z,26.63
2024-03-10T02:21:10.516Z,24.98
2024-03-10T02:23:45.974Z,28.80
2024-03-10T02:26:16.421Z,25.70
2024-03-10T02:29:16.037Z,27.13
2024-03-10T02:32:06.076Z,30.27
2024-03-10T02:34:52.596Z,23.92
2024-03-10T02:37:39.161Z,26.37
2024-03-10T02:40:25.368Z,29.10
2024-03-10T02:43:11.233Z,29.63
2024-03-10T02:45:57.331Z,28.88
2024-03-10T02:48:24.897Z,24.63
2024-03-10T02:50:52.424Z,28.00
2024-03-10T02:53:19.379Z,30.73
2024-03-10T02:55:47.038Z,28.17
2024-03-10T02:58:14.514Z,26.42
2024-03-10T03:00:41.927Z,27.85
2024-03-10T03:03:10.099Z,27.37
2024-03-10T03:05:40.871Z,29.10
2024-03-10T03:08:08.969Z,30.40
2024-03-10T03:10:36.556Z,26.45
2024-03-10T03:13:04.064Z,31.58
2024-03-10T03:15:31.315Z,31.67
2024-03-10T03:17:59.364Z,30.92
2024-03-10T03:20:28.079Z,25.15
2024-03-10T03:22:56.017Z,31.27
2024-03-10T03:25:23.801Z,32.83
2024-03-10T03:27:51.994Z,31.23
2024-03-10T03:30:19.844Z,31.67
2024-03-10T03:32:47.511Z,33.88
2024-03-10T03:35:18.242Z,28.88
2024-03-10T03:37:47.274Z,29.27
2024-03-10T03:40:15.385Z,32.07
2024-03-10T03:42:42.459Z,34.75
2024-03-10T03:45:10.096Z,32.15
2024-03-10T03:47:38.283Z,31.75
2024-03-10T03:50:06.012Z,31.77
2024-03-10T03:52:33.091Z,31.33
2024-03-10T03:55:02.160Z,28.63
2024-03-10T03:57:29.098Z,22.17
2024-03-10T03:59:56.471Z,36.00
2024-03-10T04:02:27.586Z,30.63
2024-03-10T04:04:56.186Z,32.77
2024-03-10T04:07:23.863Z,28.80
2024-03-10T04:09:50.708Z,34.67
2024-03-10T04:12:18.102Z,32.65
2024-03-10T04:14:45.462Z,29.48
2024-03-10T04:17:12.856Z,26.87
2024-03-10T04:19:40.156Z,31.98
2024-03-10T04:22:11.586Z,33.58
2024-03-10T04:24:42.895Z,28.48
2024-03-10T04:27:10.482Z,27.38
2024-03-10T04:29:37.942Z,29.73
2024-03-10T04:32:08.848Z,24.52
2024-03-10T04:34:37.549Z,25.00
2024-03-10T04:37:06.311Z,32.75
2024-03-10T04:39:33.212Z,30.23
2024-03-10T04:42:00.498Z,31.87
2024-03-10T04:44:27.453Z,29.50
2024-03-10T04:46:55.089Z,27.15
2024-03-10T04:49:22.377Z,27.38
2024-03-10T04:51:49.604Z,30.08
2024-03-10T04:54:16.851Z,30.60
2024-03-10T04:56:46.629Z,27.65
2024-03-10T04:59:13.994Z,35.10
2024-03-10T05:01:41.285Z,33.53
2024-03-10T05:04:08.364Z,30.05
2024-03-10T05:06:36.162Z,26.90
2024-03-10T05:09:04.662Z,33.92
2024-03-10T05:11:31.806Z,32.85
2024-03-10T05:14:00.266Z,35.30
2024-03-10T05:16:27.710Z,33.97
2024-03-10T05:18:56.034Z,32.27
2024-03-10T05:21:27.498Z,30.05
2024-03-10T05:23:55.044Z,28.48
2024-03-10T05:26:22.494Z,32.92
2024-03-10T05:28:49.501Z,31.23
2024-03-10T05:31:28.266Z,31.47
2024-03-10T05:34:00.800Z,33.65
2024-03-10T05:36:28.355Z,28.23
2024-03-10T05:38:55.762Z,27.63
2024-03-10T05:41:23.233Z,31.73
2024-03-10T05:43:50.693Z,31.03
2024-03-10T05:46:18.050Z,28.98
2024-03-10T05:48:46.247Z,35.25
2024-03-10T05:51:14.936Z,33.00
2024-03-10T05:53:42.118Z,31.80
2024-03-10T05:56:11.383Z,28.33
2024-03-10T05:58:41.547Z,32.50
2024-03-10T06:01:09.403Z,29.40
2024-03-10T06:03:36.906Z,31.05
2024-03-10T06:06:04.485Z,30.65
2024-03-10T06:08:31.993Z,33.27
2024-03-10T06:10:59.588Z,30.48
2024-03-10T06:13:27.023Z,29.83
2024-03-10T06:15:54.447Z,31.70
2024-03-10T06:18:32.988Z,41.38
2024-03-10T06:21:19.159Z,35.77
2024-03-10T06:24:05.267Z,29.77
2024-03-10T06:26:33.068Z,28.42
2024-03-10T06:29:02.133Z,34.97
2024-03-10T06:31:29.665Z,30.70
2024-03-10T06:33:58.929Z,30.87
2024-03-10T06:36:26.277Z,33.33
2024-03-10T06:38:54.196Z,29.38
2024-03-10T06:41:21.134Z,36.35
2024-03-10T06:43:48.318Z,31.50
2024-03-10T06:46:15.631Z,32.47
2024-03-10T06:48:43.109Z,38.03
2024-03-10T06:51:10.929Z,30.88
2024-03-10T06:53:38.540Z,33.50
2024-03-10T06:56:07.021Z,32.60
2024-03-10T06:58:34.060Z,33.00
2024-03-10T07:01:03.979Z,28.70
2024-03-10T07:03:32.182Z,27.30
2024-03-10T07:06:02.194Z,30.58
2024-03-10T07:08:31.794Z,31.70
2024-03-10T07:11:00.096Z,31.73
2024-03-10T07:13:27.047Z,27.00
2024-03-10T07:15:57.763Z,30.33
2024-03-10T07:18:24.678Z,29.50
2024-03-10T07:20:51.977Z,33.78
2024-03-10T07:23:23.173Z,32.27
2024-03-10T07:25:50.357Z,29.25
2024-03-10T07:28:17.760Z,31.35
2024-03-10T07:30:45.079Z,33.33
2024-03-10T07:33:12.381Z,28.33
2024-03-10T07:35:39.694Z,18.27
2024-03-10T07:38:07.390Z,29.13
2024-03-10T07:40:34.552Z,27.10
2024-03-10T07:43:02.008Z,31.65
2024-03-10T07:45:29.302Z,31.58
2024-03-10T07:47:57.404Z,31.40
2024-03-10T07:50:24.788Z,31.00
2024-03-10T07:52:52.117Z,34.08
2024-03-10T07:55:19.381Z,31.60
2024-03-10T07:57:46.762Z,29.55
2024-03-10T08:00:18.333Z,27.50
2024-03-10T08:02:45.935Z,28.85
2024-03-10T08:05:14.976Z,26.65
2024-03-10T08:07:45.356Z,26.73
2024-03-10T08:10:14.701Z,31.67
2024-03-10T08:12:44.534Z,28.97
2024-03-10T08:15:12.635Z,28.65
2024-03-10T08:17:40.286Z,27.33
2024-03-10T08:20:08.058Z,29.92
2024-03-10T08:22:38.236Z,27.40
2024-03-10T08:25:06.010Z,25.40
2024-03-10T08:27:33.648Z,28.20
2024-03-10T08:30:00.622Z,26.83
2024-03-10T08:32:28.400Z,25.15
2024-03-10T08:34:55.815Z,45.33
2024-03-10T08:37:23.232Z,30.57
2024-03-10T08:39:50.323Z,28.40
2024-03-10T08:42:17.869Z,26.33
2024-03-10T08:44:45.086Z,24.05
2024-03-10T08:47:12.536Z,26.42
2024-03-10T08:49:39.824Z,24.40
2024-03-10T08:52:08.174Z,25.95
2024-03-10T08:54:37.927Z,25.42
2024-03-10T08:57:05.850Z,24.23
2024-03-10T08:59:33.467Z,26.33
2024-03-10T09:02:02.168Z,28.97
2024-03-10T09:04:29.120Z,24.63
2024-03-10T09:06:55.967Z,23.23
2024-03-10T09:09:23.680Z,23.30
2024-03-10T09:11:51.182Z,28.88
2024-03-10T09:14:20.031Z,27.33
2024-03-10T09:16:47.425Z,27.95
2024-03-10T09:19:15.527Z,26.63
2024-03-10T09:21:44.619Z,25.13
2024-03-10T09:24:15.877Z,24.30
2024-03-10T09:26:43.221Z,24.13
2024-03-10T09:29:11.014Z,23.20
2024-03-10T09:31:41.241Z,23.67
2024-03-10T09:34:10.560Z,30.38
2024-03-10T09:36:37.949Z,21.55
2024-03-10T09:39:05.451Z,23.30
2024-03-10T09:41:33.061Z,24.30
2024-03-10T09:44:01.980Z,25.35
2024-03-10T09:46:30.782Z,25.90
2024-03-10T09:48:59.669Z,23.15
2024-03-10T09:51:29.178Z,20.10
2024-03-10T09:53:56.801Z,24.33
2024-03-10T09:56:25.818Z,21.67
2024-03-10T09:59:04.829Z,19.83
2024-03-10T10:01:35.162Z,26.08
2024-03-10T10:04:04.744Z,21.33
2024-03-10T10:06:33.057Z,20.35
2024-03-10T10:09:08.595Z,24.80
2024-03-10T10:11:36.418Z,18.08
2024-03-10T10:14:24.547Z,22.60
2024-03-10T10:17:00.326Z,22.03
2024-03-10T10:19:28.745Z,22.40
2024-03-10T10:21:56.159Z,23.27
2024-03-10T10:24:23.484Z,21.77
2024-03-10T10:27:00.407Z,21.77
2024-03-10T10:29:28.978Z,19.20
2024-03-10T10:32:01.332Z,22.52
2024-03-10T10:34:29.498Z,21.42
2024-03-10T10:36:57.618Z,22.48
2024-03-10T10:39:28.464Z,21.10
2024-03-10T10:42:00.103Z,23.10
2024-03-10T10:44:28.736Z,23.90
2024-03-10T10:46:56.178Z,24.75
2024-03-10T10:49:23.434Z,20.40
2024-03-10T10:51:57.916Z,24.13
2024-03-10T10:54:25.370Z,25.00
2024-03-10T10:56:56.814Z,23.17
2024-03-10T10:59:25.822Z,24.80
2024-03-10T11:01:57.556Z,23.98
2024-03-10T11:04:28.065Z,24.88
2024-03-10T11:06:56.666Z,23.93
2024-03-10T11:09:32.136Z,19.88
2024-03-10T11:12:00.031Z,26.77
2024-03-10T11:14:28.534Z,25.20
2024-03-10T11:17:17.501Z,22.50
2024-03-10T11:19:49.346Z,28.97
2024-03-10T11:22:21.806Z,22.15
2024-03-10T11:25:09.735Z,22.65
2024-03-10T11:27:46.877Z,24.80
2024-03-10T11:30:53.412Z,25.55
2024-03-10T11:33:24.714Z,23.07
2024-03-10T11:35:53.522Z,21.00
2024-03-10T11:38:22.254Z,26.92
2024-03-10T11:40:58.560Z,38.17
2024-03-10T11:43:27.493Z,26.75
2024-03-10T11:45:54.991Z,25.87
2024-03-10T11:48:24.631Z,24.77
2024-03-10T11:50:56.109Z,26.17
2024-03-10T11:53:23.656Z,22.55
2024-03-10T11:55:58.854Z,23.83
2024-03-10T11:58:26.251Z,24.33
2024-03-10T12:00:54.944Z,25.17
2024-03-10T12:03:22.431Z,26.90
2024-03-10T12:05:50.042Z,27.48
2024-03-10T12:08:20.118Z,25.40
2024-03-10T12:10:47.525Z,24.90
2024-03-10T12:13:20.542Z,23.15
2024-03-10T12:15:52.087Z,23.70
2024-03-10T12:18:19.635Z,23.33
2024-03-10T12:20:46.969Z,23.25
2024-03-10T12:23:14.056Z,24.47
2024-03-10T12:25:46.117Z,23.25
2024-03-10T12:28:14.468Z,22.38
2024-03-10T12:30:45.078Z,23.58
2024-03-10T12:33:13.036Z,23.85
2024-03-10T12:35:40.364Z,21.73
2024-03-10T12:38:07.733Z,25.63
2024-03-10T12:40:35.201Z,22.75
2024-03-10T12:43:02.554Z,23.75
2024-03-10T12:45:31.086Z,24.65
2024-03-10T12:47:58.639Z,24.23
2024-03-10T12:50:26.395Z,23.02
2024-03-10T12:52:53.857Z,22.75
2024-03-10T12:55:21.917Z,24.10
2024-03-10T12:57:49.229Z,27.15
2024-03-10T13:00:23.794Z,25.20
2024-03-10T13:02:52.461Z,24.42
2024-03-10T13:05:20.976Z,26.35
2024-03-10T13:07:48.126Z,23.02
2024-03-10T13:10:16.134Z,25.38
2024-03-10T13:12:45.805Z,28.23
2024-03-10T13:15:13.118Z,23.65
2024-03-10T13:17:40.734Z,27.15
2024-03-10T13:20:12.653Z,30.02
2024-03-10T13:22:40.176Z,27.25
2024-03-10T13:25:07.494Z,25.23
2024-03-10T13:27:36.417Z,24.25
2024-03-10T13:30:07.122Z,24.38
2024-03-10T13:32:34.846Z,24.25
2024-03-10T13:35:02.512Z,28.20
2024-03-10T13:37:32.497Z,26.70
2024-03-10T13:40:04.576Z,27.85
2024-03-10T13:42:31.897Z,25.25
2024-03-10T13:44:59.275Z,24.25
2024-03-10T13:47:26.793Z,24.77
2024-03-10T13:49:54.303Z,24.97
2024-03-10T13:52:21.924Z,24.83
2024-03-10T13:54:51.818Z,26.10
2024-03-10T13:57:20.604Z,26.10
2024-03-10T13:59:49.026Z,29.55
2024-03-10T14:02:16.531Z,25.27
2024-03-10T14:04:43.532Z,26.83
2024-03-10T14:07:11.903Z,29.98
2024-03-10T14:09:39.249Z,28.08
2024-03-10T14:12:07.008Z,26.92
2024-03-10T14:14:35.457Z,30.03
2024-03-10T14:17:05.099Z,26.85
2024-03-10T14:19:33.831Z,29.67
2024-03-10T14:22:01.182Z,28.67
2024-03-10T14:24:28.009Z,52.08
2024-03-10T14:26:57.639Z,27.83
2024-03-10T14:29:26.428Z,26.65
2024-03-10T14:31:54.346Z,33.03
2024-03-10T14:34:21.797Z,29.75
2024-03-10T14:36:49.034Z,27.75
2024-03-10T14:39:16.818Z,31.67
2024-03-10T14:41:44.125Z,32.10
2024-03-10T14:44:11.898Z,31.33
2024-03-10T14:46:39.061Z,31.40
2024-03-10T14:49:09.316Z,28.70
2024-03-10T14:51:39.863Z,33.87
2024-03-10T14:54:08.555Z,34.60
2024-03-10T14:56:35.536Z,36.47
2024-03-10T14:59:03.009Z,30.65
2024-03-10T15:01:33.785Z,31.42
2024-03-10T15:04:01.723Z,29.37
2024-03-10T15:06:29.225Z,34.13
2024-03-10T15:08:58.787Z,30.88
2024-03-10T15:11:26.357Z,27.42
2024-03-10T15:13:53.731Z,30.02
2024-03-10T15:16:22.433Z,22.87
2024-03-10T15:18:49.434Z,30.08
2024-03-10T15:21:16.938Z,32.20
2024-03-10T15:23:44.328Z,34.42
2024-03-10T15:26:11.545Z,29.67
2024-03-10T15:28:38.859Z,32.43
2024-03-10T15:31:06.150Z,29.40
2024-03-10T15:33:33.535Z,31.30
2024-03-10T15:36:00.912Z,29.58
2024-03-10T15:38:28.380Z,30.27
2024-03-10T15:40:55.408Z,30.97
2024-03-10T15:43:22.999Z,29.55
2024-03-10T15:45:50.493Z,27.13
2024-03-10T15:48:18.046Z,32.47
2024-03-10T15:50:45.028Z,34.05
2024-03-10T15:53:12.604Z,31.80
2024-03-10T15:55:39.850Z,78.43
2024-03-10T15:58:08.701Z,30.27
2024-03-10T16:00:35.775Z,29.73
2024-03-10T16:03:24.046Z,30.52
2024-03-10T16:05:59.470Z,28.93
2024-03-10T16:08:29.155Z,29.20
2024-03-10T16:10:56.583Z,30.95
2024-03-10T16:13:35.637Z,27.35
2024-03-10T16:16:03.939Z,28.45
2024-03-10T16:18:33.363Z,32.60
2024-03-10T16:21:01.257Z,32.13
2024-03-10T16:23:29.288Z,30.85
2024-03-10T16:25:56.879Z,34.20
2024-03-10T16:28:24.185Z,32.72
2024-03-10T16:30:53.146Z,30.60
2024-03-10T16:33:21.539Z,32.10
2024-03-10T16:35:48.821Z,32.80
2024-03-10T16:38:16.213Z,32.00
2024-03-10T16:40:43.568Z,30.35
2024-03-10T16:43:10.533Z,30.80
2024-03-10T16:45:39.461Z,31.90
2024-03-10T16:48:06.960Z,32.75
2024-03-10T16:50:34.757Z,29.27
2024-03-10T16:53:05.732Z,30.90
2024-03-10T16:55:33.240Z,33.57
2024-03-10T16:58:03.759Z,31.42
2024-03-10T17:00:34.322Z,33.38
2024-03-10T17:03:22.367Z,30.77
2024-03-10T17:05:55.558Z,32.92
2024-03-10T17:08:26.074Z,30.17
2024-03-10T17:10:54.361Z,31.83
2024-03-10T17:13:21.698Z,35.97
2024-03-10T17:15:48.626Z,32.22
2024-03-10T17:18:15.933Z,32.30
2024-03-10T17:20:43.977Z,32.93
2024-03-10T17:23:13.901Z,30.92
2024-03-10T17:25:41.414Z,33.15
2024-03-10T17:28:08.767Z,35.90
2024-03-10T17:30:36.339Z,34.05
2024-03-10T17:33:06.892Z,34.53
2024-03-10T17:35:34.207Z,52.75
2024-03-10T17:38:01.485Z,39.83
2024-03-10T17:40:29.068Z,34.22
2024-03-10T17:42:56.645Z,57.25
2024-03-10T17:45:26.010Z,49.90
2024-03-10T17:47:53.555Z,63.00
2024-03-10T17:50:21.536Z,62.50
2024-03-10T17:52:49.629Z,35.92
2024-03-10T17:55:17.476Z,28.95
2024-03-10T17:57:44.761Z,43.30
2024-03-10T18:00:14.849Z,43.20
2024-03-10T18:02:44.123Z,37.95
2024-03-10T18:05:15.139Z,35.90
2024-03-10T18:07:42.570Z,38.42
2024-03-10T18:10:09.827Z,35.57
2024-03-10T18:12:37.822Z,36.13
2024-03-10T18:15:07.934Z,33.50
2024-03-10T18:17:35.630Z,35.25
2024-03-10T18:20:03.919Z,35.08
2024-03-10T18:22:31.213Z,36.63
2024-03-10T18:24:58.511Z,34.70
2024-03-10T18:27:27.626Z,36.20
2024-03-10T18:29:55.198Z,33.38
2024-03-10T18:32:23.447Z,33.75
2024-03-10T18:34:50.600Z,32.53
2024-03-10T18:37:17.881Z,36.08
2024-03-10T18:39:44.725Z,33.65
2024-03-10T18:42:12.062Z,36.70
2024-03-10T18:44:39.436Z,35.55
2024-03-10T18:47:06.829Z,35.40
2024-03-10T18:49:33.776Z,41.08
2024-03-10T18:52:01.150Z,34.78
2024-03-10T18:54:28.393Z,40.90
2024-03-10T18:56:56.844Z,33.38
2024-03-10T18:59:24.134Z,33.40
2024-03-10T19:01:51.656Z,34.83
2024-03-10T19:04:20.334Z,35.20
2024-03-10T19:06:51.014Z,34.47
2024-03-10T19:09:19.428Z,37.25
2024-03-10T19:11:47.022Z,32.30
2024-03-10T19:14:14.618Z,37.75
2024-03-10T19:16:41.968Z,37.90
2024-03-10T19:19:09.941Z,35.92
2024-03-10T19:21:39.160Z,36.05
2024-03-10T19:24:06.689Z,35.03
2024-03-10T19:26:34.063Z,35.33
2024-03-10T19:29:01.569Z,34.97
2024-03-10T19:31:28.501Z,32.75
2024-03-10T19:33:55.727Z,32.80
2024-03-10T19:36:23.004Z,34.53
2024-03-10T19:38:50.394Z,36.53
2024-03-10T19:41:19.826Z,34.92
2024-03-10T19:43:47.957Z,35.25
2024-03-10T19:46:15.937Z,35.22
2024-03-10T19:48:43.263Z,37.50
2024-03-10T19:51:13.515Z,41.80
2024-03-10T19:53:41.510Z,39.70
2024-03-10T19:56:08.572Z,39.55
2024-03-10T19:58:36.018Z,41.55
2024-03-10T20:01:03.184Z,37.73
2024-03-10T20:03:30.964Z,40.17
2024-03-10T20:05:59.142Z,40.15
2024-03-10T20:08:26.505Z,37.35
2024-03-10T20:10:53.439Z,40.60
2024-03-10T20:13:20.785Z,38.87
2024-03-10T20:15:48.110Z,30.52
2024-03-10T20:18:15.038Z,37.03
2024-03-10T20:20:43.432Z,37.03
2024-03-10T20:23:10.819Z,38.92
2024-03-10T20:25:38.134Z,38.20
2024-03-10T20:28:07.563Z,36.75
2024-03-10T20:30:34.924Z,35.72
2024-03-10T20:33:02.298Z,34.90
2024-03-10T20:35:29.792Z,37.72
2024-03-10T20:37:57.303Z,34.40
2024-03-10T20:40:24.216Z,35.50
2024-03-10T20:42:52.308Z,36.13
2024-03-10T20:45:19.563Z,37.92
2024-03-10T20:47:49.168Z,36.42
2024-03-10T20:50:23.290Z,37.77
2024-03-10T20:52:51.461Z,37.95
2024-03-10T20:55:19.092Z,36.70
2024-03-10T20:57:46.516Z,35.83
2024-03-10T21:00:19.691Z,36.45
2024-03-10T21:02:49.011Z,37.10
2024-03-10T21:05:16.946Z,38.00
2024-03-10T21:07:44.864Z,34.35
2024-03-10T21:10:15.571Z,36.70
2024-03-10T21:12:43.532Z,34.58
2024-03-10T21:15:12.406Z,38.33
2024-03-10T21:17:40.079Z,37.72
2024-03-10T21:20:12.754Z,39.55
2024-03-10T21:22:40.615Z,38.85
2024-03-10T21:25:08.136Z,39.63
2024-03-10T21:27:35.492Z,36.47
2024-03-10T21:30:02.955Z,39.58
2024-03-10T21:32:30.293Z,37.75
2024-03-10T21:34:57.135Z,32.58
2024-03-10T21:37:25.925Z,38.88
2024-03-10T21:39:54.032Z,39.10
2024-03-10T21:42:22.700Z,42.38
2024-03-10T21:44:50.129Z,40.90
2024-03-10T21:47:17.718Z,39.17
2024-03-10T21:49:45.919Z,40.38
2024-03-10T21:52:12.725Z,38.13
2024-03-10T21:54:39.513Z,36.20
2024-03-10T21:57:06.543Z,41.83
2024-03-10T21:59:33.813Z,44.60
2024-03-10T22:02:01.609Z,43.60
2024-03-10T22:04:28.884Z,41.47
2024-03-10T22:06:56.158Z,34.53
2024-03-10T22:09:23.002Z,39.58
2024-03-10T22:11:51.813Z,38.58
2024-03-10T22:14:19.221Z,35.50
2024-03-10T22:16:46.482Z,39.57
2024-03-10T22:19:13.837Z,38.10
2024-03-10T22:21:41.477Z,36.75
2024-03-10T22:24:09.575Z,39.63
2024-03-10T22:26:36.972Z,42.05
2024-03-10T22:29:05.188Z,39.20
2024-03-10T22:31:33.210Z,37.33
2024-03-10T22:34:00.095Z,40.55
2024-03-10T22:36:27.438Z,39.45
2024-03-10T22:38:54.702Z,42.30
2024-03-10T22:41:22.005Z,43.33
2024-03-10T22:43:49.249Z,37.90
2024-03-10T22:46:16.478Z,43.67
2024-03-10T22:48:43.772Z,41.00
2024-03-10T22:51:10.990Z,39.47
2024-03-10T22:53:38.294Z,41.40
2024-03-10T22:56:05.748Z,39.80
2024-03-10T22:58:33.060Z,43.22
2024-03-10T23:01:00.769Z,44.30
2024-03-10T23:03:28.203Z,46.17
2024-03-10T23:05:56.018Z,42.00
2024-03-10T23:08:23.922Z,42.75
2024-03-10T23:10:52.432Z,42.92
2024-03-10T23:13:21.121Z,39.95
2024-03-10T23:15:50.472Z,40.42
2024-03-10T23:18:25.047Z,41.00
2024-03-10T23:20:57.054Z,31.88
2024-03-10T23:23:25.016Z,40.30
2024-03-10T23:25:56.267Z,36.55
2024-03-10T23:28:24.070Z,42.80
2024-03-10T23:30:51.470Z,41.63
2024-03-10T23:33:18.819Z,38.72
2024-03-10T23:35:47.078Z,41.47
2024-03-10T23:38:14.529Z,40.78
2024-03-10T23:40:41.750Z,43.03
2024-03-10T23:43:08.644Z,41.57
2024-03-10T23:45:36.037Z,39.88
2024-03-10T23:48:03.305Z,41.83
2024-03-10T23:50:30.921Z,42.65
2024-03-10T23:53:00.953Z,42.72
2024-03-10T23:55:59.938Z,39.33
2024-03-10T23:58:29.108Z,40.70
